createdAt,value
2019-05-07T00:00:35.619Z,56.70
2019-05-07T00:03:03.885Z,55.90
2019-05-07T00:05:33.226Z,55.90
2019-05-07T00:08:02.975Z,56.00
2019-05-07T00:10:33.141Z,56.00
2019-05-07T00:13:02.304Z,55.90
2019-05-07T00:15:32.803Z,55.90
2019-05-07T00:18:02.977Z,55.90
2019-05-07T00:20:32.697Z,55.80
2019-05-07T00:23:02.944Z,55.80
2019-05-07T00:25:32.850Z,56.40
2019-05-07T00:28:02.735Z,55.70
2019-05-07T00:30:33.216Z,55.70
2019-05-07T00:33:02.758Z,55.70
2019-05-07T00:35:35.603Z,55.70
2019-05-07T00:38:06.104Z,55.70
2019-05-07T00:40:44.990Z,55.70
2019-05-07T00:43:18.413Z,55.70
2019-05-07T00:45:48.403Z,55.70
2019-05-07T00:48:16.659Z,55.70
2019-05-07T00:50:46.550Z,55.60
2019-05-07T00:53:14.814Z,55.70
2019-05-07T00:55:43.669Z,55.80
2019-05-07T00:58:13.253Z,55.70
2019-05-07T01:00:42.183Z,55.70
2019-05-07T01:03:12.768Z,55.70
2019-05-07T01:05:43.007Z,55.70
2019-05-07T01:08:12.986Z,55.80
2019-05-07T01:10:41.982Z,55.80
2019-05-07T01:13:12.640Z,55.70
2019-05-07T01:15:42.812Z,55.70
2019-05-07T01:18:12.341Z,55.70
2019-05-07T01:20:42.311Z,55.70
2019-05-07T01:23:13.225Z,55.60
2019-05-07T01:25:42.838Z,55.70
2019-05-07T01:28:13.019Z,55.70
2019-05-07T01:30:42.997Z,55.60
2019-05-07T01:33:28.855Z,55.70
2019-05-07T01:36:07.878Z,55.70
2019-05-07T01:38:36.132Z,55.70
2019-05-07T01:41:04.447Z,55.70
2019-05-07T01:43:32.772Z,55.70
2019-05-07T01:46:02.958Z,55.60
2019-05-07T01:48:32.370Z,55.70
2019-05-07T01:51:03.186Z,55.60
2019-05-07T01:53:32.330Z,55.60
2019-05-07T01:56:03.045Z,55.60
2019-05-07T01:58:32.852Z,55.60
2019-05-07T02:01:02.757Z,55.50
2019-05-07T02:03:35.090Z,55.50
2019-05-07T02:06:07.741Z,55.50
2019-05-07T02:08:38.122Z,55.60
2019-05-07T02:11:08.024Z,55.60
2019-05-07T02:13:36.279Z,55.50
2019-05-07T02:16:04.544Z,55.50
2019-05-07T02:18:32.802Z,55.60
2019-05-07T02:21:03.234Z,55.50
2019-05-07T02:23:33.056Z,55.50
2019-05-07T02:26:02.381Z,55.60
2019-05-07T02:28:32.789Z,55.50
2019-05-07T02:31:03.790Z,55.50
2019-05-07T02:33:30.835Z,55.50
2019-05-07T02:35:59.431Z,55.50
2019-05-07T02:38:33.894Z,55.50
2019-05-07T02:41:08.861Z,55.50
2019-05-07T02:43:37.143Z,55.50
2019-05-07T02:46:22.414Z,55.50
2019-05-07T02:48:47.863Z,55.50
2019-05-07T02:51:17.771Z,55.60
2019-05-07T02:53:56.748Z,55.50
2019-05-07T02:56:25.019Z,55.50
2019-05-07T02:58:53.299Z,55.50
2019-05-07T03:01:22.642Z,55.50
2019-05-07T03:03:52.804Z,55.50
2019-05-07T03:06:23.365Z,55.60
2019-05-07T03:08:53.496Z,55.50
2019-05-07T03:11:22.920Z,55.40
2019-05-07T03:13:53.826Z,55.40
2019-05-07T03:16:38.777Z,55.40
2019-05-07T03:18:53.304Z,55.40
2019-05-07T03:21:23.530Z,55.40
2019-05-07T03:23:56.127Z,55.50
2019-05-07T03:26:26.051Z,55.40
2019-05-07T03:28:56.007Z,55.50
2019-05-07T03:31:28.763Z,55.50
2019-05-07T03:34:06.988Z,55.40
2019-05-07T03:36:56.405Z,55.50
2019-05-07T03:39:23.948Z,55.50
2019-05-07T03:41:53.100Z,55.40
2019-05-07T03:44:39.408Z,55.50
2019-05-07T03:47:23.958Z,55.40
2019-05-07T03:49:53.585Z,55.40
2019-05-07T03:52:24.472Z,55.40
2019-05-07T03:54:54.008Z,55.40
2019-05-07T03:57:23.702Z,55.40
2019-05-07T03:59:53.313Z,55.50
2019-05-07T04:02:23.786Z,55.50
2019-05-07T04:04:52.918Z,55.50
2019-05-07T04:07:23.360Z,55.50
2019-05-07T04:09:53.489Z,56.10
2019-05-07T04:12:23.752Z,55.40
2019-05-07T04:14:53.327Z,55.40
2019-05-07T04:17:26.304Z,55.40
2019-05-07T04:19:53.259Z,55.40
2019-05-07T04:22:26.471Z,55.40
2019-05-07T04:25:08.236Z,55.50
2019-05-07T04:27:38.130Z,55.40
2019-05-07T04:30:07.096Z,55.60
2019-05-07T04:32:46.100Z,55.70
2019-05-07T04:35:16.006Z,55.50
2019-05-07T04:37:44.291Z,55.00
2019-05-07T04:40:13.462Z,55.10
2019-05-07T04:42:42.774Z,54.90
2019-05-07T04:45:13.686Z,54.70
2019-05-07T04:47:46.323Z,54.70
2019-05-07T04:50:13.945Z,54.70
2019-05-07T04:52:43.695Z,54.80
2019-05-07T04:55:13.803Z,54.80
2019-05-07T04:57:43.873Z,54.70
2019-05-07T05:00:13.619Z,54.80
2019-05-07T05:03:03.139Z,54.80
2019-05-07T05:05:32.733Z,55.90
2019-05-07T05:08:00.187Z,55.60
2019-05-07T05:10:28.451Z,55.40
2019-05-07T05:12:56.714Z,55.40
2019-05-07T05:15:24.979Z,55.30
2019-05-07T05:17:54.038Z,55.10
2019-05-07T05:20:24.335Z,55.20
2019-05-07T05:23:03.599Z,55.30
2019-05-07T05:25:33.504Z,55.20
2019-05-07T05:28:02.117Z,55.00
2019-05-07T05:30:42.434Z,55.10
2019-05-07T05:33:12.572Z,54.70
2019-05-07T05:35:43.079Z,54.40
2019-05-07T05:38:12.664Z,54.20
2019-05-07T05:40:42.690Z,54.30
2019-05-07T05:43:18.822Z,54.10
2019-05-07T05:45:48.728Z,54.00
2019-05-07T05:48:16.999Z,54.10
2019-05-07T05:51:04.010Z,54.00
2019-05-07T05:53:46.178Z,54.10
2019-05-07T05:56:24.976Z,54.10
2019-05-07T05:59:12.157Z,54.20
2019-05-07T06:01:52.099Z,54.30
2019-05-07T06:04:25.130Z,54.30
2019-05-07T06:07:10.445Z,54.30
2019-05-07T06:09:49.067Z,54.30
2019-05-07T06:12:35.525Z,54.40
2019-05-07T06:15:33.796Z,54.40
2019-05-07T06:18:17.717Z,54.50
2019-05-07T06:20:37.968Z,54.50
2019-05-07T06:23:24.483Z,54.50
2019-05-07T06:25:52.778Z,54.60
2019-05-07T06:28:22.365Z,54.50
2019-05-07T06:30:52.807Z,54.50
2019-05-07T06:33:22.899Z,54.70
2019-05-07T06:35:52.028Z,54.70
2019-05-07T06:38:22.043Z,54.60
2019-05-07T06:40:52.116Z,54.70
2019-05-07T06:43:22.033Z,55.30
2019-05-07T06:45:52.058Z,54.70
2019-05-07T06:48:37.214Z,54.80
2019-05-07T06:50:56.653Z,54.80
2019-05-07T06:53:27.723Z,54.80
2019-05-07T06:55:57.009Z,54.90
2019-05-07T06:58:26.900Z,55.40
2019-05-07T07:01:11.939Z,54.80
2019-05-07T07:04:02.690Z,54.90
2019-05-07T07:06:32.294Z,54.90
2019-05-07T07:09:18.822Z,55.00
2019-05-07T07:11:48.828Z,54.90
2019-05-07T07:14:17.230Z,55.00
2019-05-07T07:16:45.474Z,55.00
2019-05-07T07:19:13.747Z,55.10
2019-05-07T07:21:42.702Z,55.10
2019-05-07T07:24:12.716Z,55.10
2019-05-07T07:26:42.235Z,55.10
2019-05-07T07:29:12.734Z,55.10
2019-05-07T07:31:42.831Z,55.10
2019-05-07T07:34:12.949Z,55.10
2019-05-07T07:36:42.762Z,55.20
2019-05-07T07:39:12.676Z,55.20
2019-05-07T07:41:42.718Z,55.20
2019-05-07T07:44:12.740Z,55.10
2019-05-07T07:46:42.456Z,55.00
2019-05-07T07:49:14.554Z,55.00
2019-05-07T07:51:44.680Z,55.00
2019-05-07T07:54:13.035Z,55.10
2019-05-07T07:56:50.128Z,55.20
2019-05-07T07:59:23.301Z,55.10
2019-05-07T08:01:53.231Z,55.20
2019-05-07T08:04:22.872Z,55.20
2019-05-07T08:07:03.699Z,55.20
2019-05-07T08:09:33.292Z,55.20
2019-05-07T08:12:02.561Z,55.20
2019-05-07T08:14:32.498Z,55.20
2019-05-07T08:17:02.564Z,55.20
2019-05-07T08:19:32.748Z,55.10
2019-05-07T08:22:02.912Z,55.10
2019-05-07T08:24:32.096Z,55.10
2019-05-07T08:27:02.288Z,55.20
2019-05-07T08:29:32.591Z,55.20
2019-05-07T08:32:02.503Z,55.40
2019-05-07T08:34:38.270Z,55.30
2019-05-07T08:37:06.538Z,55.30
2019-05-07T08:39:34.819Z,55.30
2019-05-07T08:42:03.119Z,55.30
2019-05-07T08:44:45.218Z,55.30
2019-05-07T08:47:22.830Z,55.30
2019-05-07T08:49:52.348Z,55.40
2019-05-07T08:52:22.691Z,55.40
2019-05-07T08:54:51.857Z,56.10
2019-05-07T08:57:22.662Z,55.40
2019-05-07T08:59:58.451Z,55.50
2019-05-07T09:02:22.234Z,55.50
2019-05-07T09:04:52.347Z,55.50
2019-05-07T09:07:21.851Z,55.40
2019-05-07T09:09:52.331Z,55.50
2019-05-07T09:12:22.776Z,55.50
2019-05-07T09:14:52.721Z,55.50
2019-05-07T09:17:20.381Z,55.50
2019-05-07T09:19:52.224Z,55.50
2019-05-07T09:22:18.630Z,55.50
2019-05-07T09:24:46.885Z,55.60
2019-05-07T09:27:16.790Z,55.50
2019-05-07T09:29:46.715Z,55.50
2019-05-07T09:32:25.559Z,55.50
2019-05-07T09:35:12.505Z,55.50
2019-05-07T09:37:42.075Z,55.50
2019-05-07T09:40:12.452Z,55.60
2019-05-07T09:42:42.194Z,55.60
2019-05-07T09:45:12.102Z,55.70
2019-05-07T09:47:41.791Z,55.60
2019-05-07T09:50:11.896Z,55.70
2019-05-07T09:52:42.509Z,55.70
2019-05-07T09:55:17.163Z,55.60
2019-05-07T09:57:42.547Z,55.60
2019-05-07T10:00:12.331Z,55.60
2019-05-07T10:02:42.492Z,55.60
2019-05-07T10:05:10.765Z,55.60
2019-05-07T10:07:39.042Z,55.60
2019-05-07T10:10:07.914Z,55.60
2019-05-07T10:12:43.799Z,55.60
2019-05-07T10:15:12.413Z,55.60
2019-05-07T10:17:46.314Z,55.60
2019-05-07T10:20:21.752Z,55.60
2019-05-07T10:22:44.851Z,55.60
2019-05-07T10:25:13.139Z,55.70
2019-05-07T10:27:41.960Z,55.70
2019-05-07T10:30:12.674Z,55.70
2019-05-07T10:32:42.132Z,55.60
2019-05-07T10:35:12.770Z,55.70
2019-05-07T10:37:42.269Z,55.60
2019-05-07T10:40:12.261Z,55.70
2019-05-07T10:42:42.781Z,55.70
2019-05-07T10:45:21.899Z,55.60
2019-05-07T10:48:03.854Z,55.60
2019-05-07T10:50:38.938Z,55.60
2019-05-07T10:53:04.092Z,55.60
2019-05-07T10:55:32.954Z,55.70
2019-05-07T10:58:03.004Z,55.70
2019-05-07T11:00:33.096Z,55.70
2019-05-07T11:03:02.426Z,55.80
2019-05-07T11:05:32.631Z,55.70
2019-05-07T11:08:02.098Z,55.70
2019-05-07T11:10:32.723Z,55.60
2019-05-07T11:13:02.366Z,55.60
2019-05-07T11:15:32.660Z,55.60
2019-05-07T11:18:03.626Z,55.60
2019-05-07T11:20:32.121Z,55.60
2019-05-07T11:23:02.486Z,55.70
2019-05-07T11:25:30.538Z,55.60
2019-05-07T11:27:58.806Z,55.50
2019-05-07T11:30:27.106Z,55.50
2019-05-07T11:32:55.386Z,55.50
2019-05-07T11:35:23.666Z,55.40
2019-05-07T11:37:52.227Z,55.40
2019-05-07T11:40:22.915Z,55.40
2019-05-07T11:42:58.966Z,55.40
2019-05-07T11:45:28.882Z,55.40
2019-05-07T11:47:57.154Z,55.40
2019-05-07T11:50:27.548Z,55.40
2019-05-07T11:53:03.396Z,55.40
2019-05-07T11:55:31.685Z,55.30
2019-05-07T11:58:02.279Z,55.20
2019-05-07T12:00:32.369Z,55.00
2019-05-07T12:03:02.247Z,55.20
2019-05-07T12:05:33.026Z,55.30
2019-05-07T12:08:02.379Z,55.70
2019-05-07T12:10:32.597Z,56.00
2019-05-07T12:13:02.336Z,55.70
2019-05-07T12:15:32.483Z,55.90
2019-05-07T12:18:03.058Z,56.00
2019-05-07T12:20:32.397Z,56.30
2019-05-07T12:23:02.802Z,56.60
2019-05-07T12:25:32.042Z,56.10
2019-05-07T12:28:02.366Z,56.20
2019-05-07T12:30:38.099Z,56.30
2019-05-07T12:33:26.416Z,57.30
2019-05-07T12:35:54.682Z,56.80
2019-05-07T12:38:22.979Z,57.00
2019-05-07T12:40:52.406Z,58.00
2019-05-07T12:43:20.899Z,58.60
2019-05-07T12:45:49.171Z,58.60
2019-05-07T12:48:17.457Z,57.40
2019-05-07T12:50:45.707Z,56.60
2019-05-07T12:53:15.639Z,56.50
2019-05-07T12:55:48.515Z,56.50
2019-05-07T12:58:17.079Z,56.50
2019-05-07T13:01:02.190Z,56.40
2019-05-07T13:03:34.894Z,56.30
2019-05-07T13:06:03.250Z,56.20
2019-05-07T13:08:32.982Z,56.20
2019-05-07T13:11:03.057Z,56.00
2019-05-07T13:13:32.014Z,55.90
2019-05-07T13:16:02.721Z,55.90
2019-05-07T13:18:31.266Z,55.90
2019-05-07T13:20:59.522Z,56.00
2019-05-07T13:23:27.789Z,56.00
2019-05-07T13:25:56.071Z,56.10
2019-05-07T13:28:24.351Z,56.10
2019-05-07T13:30:52.745Z,56.10
2019-05-07T13:33:22.804Z,56.10
2019-05-07T13:35:52.216Z,56.20
2019-05-07T13:38:37.132Z,56.10
2019-05-07T13:41:09.926Z,56.20
2019-05-07T13:43:58.374Z,57.40
2019-05-07T13:46:26.659Z,57.10
2019-05-07T13:48:55.304Z,58.30
2019-05-07T13:51:23.643Z,57.50
2019-05-07T13:53:52.858Z,57.50
2019-05-07T13:56:22.051Z,57.40
2019-05-07T13:58:52.232Z,57.40
2019-05-07T14:01:37.398Z,57.10
2019-05-07T14:04:05.683Z,57.20
2019-05-07T14:06:39.906Z,56.80
2019-05-07T14:09:24.283Z,56.80
2019-05-07T14:11:52.952Z,56.60
2019-05-07T14:14:22.387Z,56.30
2019-05-07T14:16:52.988Z,56.30
2019-05-07T14:19:22.433Z,56.40
2019-05-07T14:21:52.510Z,56.50
2019-05-07T14:24:22.391Z,56.60
2019-05-07T14:26:52.763Z,56.50
2019-05-07T14:29:24.387Z,56.50
2019-05-07T14:31:52.595Z,56.60
2019-05-07T14:34:22.586Z,56.70
2019-05-07T14:36:58.299Z,56.60
2019-05-07T14:39:26.582Z,56.70
2019-05-07T14:41:56.511Z,56.50
2019-05-07T14:44:26.427Z,56.60
2019-05-07T14:46:54.722Z,56.60
2019-05-07T14:49:22.996Z,56.50
2019-05-07T14:51:53.860Z,56.40
2019-05-07T14:54:22.665Z,56.50
2019-05-07T14:56:51.791Z,56.40
2019-05-07T14:59:20.291Z,56.20
2019-05-07T15:01:48.627Z,56.20
2019-05-07T15:04:16.886Z,56.10
2019-05-07T15:06:46.699Z,55.90
2019-05-07T15:09:15.106Z,56.00
2019-05-07T15:11:43.477Z,55.90
2019-05-07T15:14:12.157Z,56.30
2019-05-07T15:16:42.449Z,55.70
2019-05-07T15:19:12.290Z,57.40
2019-05-07T15:21:42.635Z,58.60
2019-05-07T15:24:12.575Z,60.40
2019-05-07T15:26:42.006Z,59.60
2019-05-07T15:29:12.280Z,59.90
2019-05-07T15:31:42.391Z,59.30
2019-05-07T15:34:12.447Z,59.80
2019-05-07T15:36:42.399Z,60.00
2019-05-07T15:39:13.245Z,59.60
2019-05-07T15:41:42.506Z,60.40
2019-05-07T15:44:11.995Z,59.30
2019-05-07T15:46:42.658Z,58.20
2019-05-07T15:49:12.396Z,57.50
2019-05-07T15:51:41.866Z,57.10
2019-05-07T15:54:12.623Z,56.90
2019-05-07T15:56:40.946Z,56.90
2019-05-07T15:59:12.771Z,56.90
2019-05-07T16:01:41.983Z,57.50
2019-05-07T16:04:21.567Z,57.80
2019-05-07T16:06:42.295Z,56.90
2019-05-07T16:09:12.751Z,56.40
2019-05-07T16:11:42.859Z,56.10
2019-05-07T16:14:14.960Z,56.00
2019-05-07T16:16:45.046Z,56.00
2019-05-07T16:19:14.979Z,56.00
2019-05-07T16:21:43.233Z,55.90
2019-05-07T16:24:12.107Z,56.20
2019-05-07T16:26:41.910Z,56.60
2019-05-07T16:29:10.378Z,56.10
2019-05-07T16:31:38.722Z,56.10
2019-05-07T16:34:06.986Z,56.10
2019-05-07T16:36:35.569Z,56.00
2019-05-07T16:39:04.954Z,56.10
2019-05-07T16:41:33.551Z,56.10
2019-05-07T16:44:02.918Z,56.20
2019-05-07T16:46:31.244Z,56.10
2019-05-07T16:48:59.539Z,56.30
2019-05-07T16:51:27.807Z,56.50
2019-05-07T16:53:56.096Z,56.40
2019-05-07T16:56:24.363Z,56.40
2019-05-07T16:59:07.702Z,56.50
2019-05-07T17:01:36.046Z,56.70
2019-05-07T17:04:05.001Z,57.10
2019-05-07T17:06:33.295Z,57.60
2019-05-07T17:09:03.216Z,57.00
2019-05-07T17:11:32.188Z,57.40
2019-05-07T17:14:02.286Z,56.80
2019-05-07T17:16:31.750Z,56.70
2019-05-07T17:19:02.354Z,57.10
2019-05-07T17:21:32.251Z,56.60
2019-05-07T17:24:02.336Z,56.50
2019-05-07T17:26:30.246Z,56.60
2019-05-07T17:28:58.600Z,56.50
2019-05-07T17:31:26.886Z,56.40
2019-05-07T17:33:55.173Z,56.50
2019-05-07T17:36:23.466Z,56.50
2019-05-07T17:38:52.024Z,57.20
2019-05-07T17:41:24.789Z,56.60
2019-05-07T17:43:52.139Z,56.60
2019-05-07T17:46:21.741Z,56.50
2019-05-07T17:48:52.207Z,56.50
2019-05-07T17:51:38.027Z,56.40
2019-05-07T17:54:06.287Z,56.40
2019-05-07T17:56:34.574Z,56.40
2019-05-07T17:59:03.033Z,56.40
2019-05-07T18:01:33.350Z,56.30
2019-05-07T18:04:02.937Z,56.30
2019-05-07T18:06:32.151Z,56.30
2019-05-07T18:09:02.757Z,56.30
2019-05-07T18:11:32.426Z,56.40
2019-05-07T18:14:02.618Z,56.40
2019-05-07T18:16:39.234Z,56.40
2019-05-07T18:19:07.600Z,56.40
2019-05-07T18:21:35.846Z,56.30
2019-05-07T18:24:13.072Z,56.30
2019-05-07T18:26:34.972Z,56.30
2019-05-07T18:29:03.226Z,56.30
2019-05-07T18:31:51.291Z,56.10
2019-05-07T18:34:19.582Z,56.10
2019-05-07T18:36:47.859Z,56.10
2019-05-07T18:39:16.137Z,56.10
2019-05-07T18:41:44.419Z,56.10
2019-05-07T18:44:15.864Z,56.10
2019-05-07T18:46:42.659Z,56.10
2019-05-07T18:49:12.806Z,56.20
2019-05-07T18:51:42.638Z,56.10
2019-05-07T18:54:12.010Z,56.10
2019-05-07T18:56:42.072Z,56.00
2019-05-07T18:59:10.830Z,56.00
2019-05-07T19:01:42.147Z,56.00
2019-05-07T19:04:12.848Z,56.00
2019-05-07T19:06:42.424Z,55.90
2019-05-07T19:09:10.986Z,55.90
2019-05-07T19:11:39.266Z,55.80
2019-05-07T19:14:07.527Z,55.90
2019-05-07T19:16:35.779Z,55.90
2019-05-07T19:19:04.062Z,55.90
2019-05-07T19:21:32.350Z,55.90
2019-05-07T19:24:02.306Z,55.90
2019-05-07T19:26:30.776Z,55.80
2019-05-07T19:28:59.117Z,55.80
2019-05-07T19:31:27.394Z,55.80
2019-05-07T19:33:55.955Z,55.90
2019-05-07T19:36:24.246Z,55.90
2019-05-07T19:38:52.716Z,55.80
2019-05-07T19:41:21.092Z,55.80
2019-05-07T19:43:49.414Z,55.80
2019-05-07T19:46:17.788Z,55.70
2019-05-07T19:48:46.327Z,55.80
2019-05-07T19:51:14.614Z,55.70
2019-05-07T19:53:42.876Z,55.90
2019-05-07T19:56:15.672Z,55.70
2019-05-07T19:58:43.946Z,55.80
2019-05-07T20:01:14.447Z,55.70
2019-05-07T20:03:43.426Z,55.70
2019-05-07T20:06:12.869Z,55.80
2019-05-07T20:08:43.714Z,55.70
2019-05-07T20:11:19.094Z,55.80
2019-05-07T20:13:47.349Z,55.80
2019-05-07T20:16:17.258Z,55.70
2019-05-07T20:18:45.510Z,55.70
2019-05-07T20:21:13.798Z,55.60
2019-05-07T20:23:43.204Z,55.60
2019-05-07T20:26:12.749Z,55.60
2019-05-07T20:28:41.767Z,55.50
2019-05-07T20:31:12.253Z,55.40
2019-05-07T20:33:42.299Z,55.30
2019-05-07T20:36:10.571Z,56.50
2019-05-07T20:38:38.864Z,56.40
2019-05-07T20:41:07.119Z,56.30
2019-05-07T20:43:35.393Z,56.80
2019-05-07T20:46:03.666Z,56.30
2019-05-07T20:48:32.412Z,56.00
2019-05-07T20:51:00.982Z,55.90
2019-05-07T20:53:47.082Z,55.80
2019-05-07T20:56:17.574Z,55.90
2019-05-07T20:58:46.152Z,55.90
2019-05-07T21:01:14.427Z,55.90
2019-05-07T21:03:42.967Z,55.90
2019-05-07T21:06:11.323Z,55.90
2019-05-07T21:08:39.870Z,55.90
2019-05-07T21:11:08.153Z,55.90
2019-05-07T21:13:36.731Z,55.90
2019-05-07T21:16:04.978Z,55.90
2019-05-07T21:18:33.274Z,55.90
2019-05-07T21:21:02.100Z,55.90
2019-05-07T21:23:32.598Z,55.90
2019-05-07T21:26:02.167Z,55.90
2019-05-07T21:28:32.387Z,55.90
2019-05-07T21:31:02.565Z,55.90
2019-05-07T21:33:32.233Z,55.90
2019-05-07T21:36:02.718Z,55.90
2019-05-07T21:38:32.735Z,56.60
2019-05-07T21:41:00.720Z,55.90
2019-05-07T21:43:29.053Z,56.50
2019-05-07T21:45:57.334Z,56.00
2019-05-07T21:48:25.618Z,57.40
2019-05-07T21:50:54.474Z,57.90
2019-05-07T21:53:27.332Z,57.50
2019-05-07T21:56:01.903Z,57.10
2019-05-07T21:58:34.904Z,57.30
2019-05-07T22:01:12.543Z,56.80
2019-05-07T22:03:43.179Z,56.70
2019-05-07T22:06:12.828Z,56.60
2019-05-07T22:08:41.366Z,56.50
2019-05-07T22:11:12.325Z,56.60
2019-05-07T22:13:43.274Z,56.60
2019-05-07T22:16:12.980Z,56.60
2019-05-07T22:18:42.685Z,56.60
2019-05-07T22:21:12.486Z,56.60
2019-05-07T22:23:42.770Z,56.60
2019-05-07T22:26:20.199Z,56.60
2019-05-07T22:28:41.981Z,56.60
2019-05-07T22:31:28.335Z,56.60
2019-05-07T22:33:59.411Z,56.60
2019-05-07T22:36:27.803Z,56.60
2019-05-07T22:38:56.086Z,56.50
2019-05-07T22:41:24.366Z,56.60
2019-05-07T22:43:52.614Z,56.50
2019-05-07T22:46:22.304Z,56.50
2019-05-07T22:48:50.778Z,56.40
2019-05-07T22:51:19.721Z,56.30
2019-05-07T22:53:48.002Z,56.30
2019-05-07T22:56:16.498Z,56.40
2019-05-07T22:58:46.395Z,56.30
2019-05-07T23:01:16.253Z,56.30
2019-05-07T23:03:44.506Z,56.30
2019-05-07T23:06:13.086Z,56.30
2019-05-07T23:08:42.383Z,56.30
2019-05-07T23:11:12.211Z,56.30
2019-05-07T23:13:42.665Z,56.20
2019-05-07T23:16:12.512Z,56.30
2019-05-07T23:18:42.814Z,56.20
2019-05-07T23:21:11.568Z,56.20
2019-05-07T23:23:42.035Z,56.20
2019-05-07T23:26:12.283Z,56.20
2019-05-07T23:28:41.721Z,56.10
2019-05-07T23:31:11.882Z,56.20
2019-05-07T23:33:39.837Z,56.10
2019-05-07T23:36:08.131Z,56.10
2019-05-07T23:38:36.402Z,56.00
2019-05-07T23:41:06.338Z,56.70
2019-05-07T23:43:34.619Z,56.00
2019-05-07T23:46:02.873Z,56.00
2019-05-07T23:48:32.135Z,55.90
2019-05-07T23:51:02.056Z,56.00
2019-05-07T23:53:30.562Z,55.90
2019-05-07T23:55:59.411Z,55.90
2019-05-07T23:58:27.674Z,55.90
